Time;durP1;ratioP1;P1;durP2;ratioP2;P2;SDS_P1;SDS_P2;PMS_P1;PMS_P2;Temp;Humidity;BMP_temperature;BMP_pressure;BME280_temperature;BME280_humidity;BME280_pressure;Samples;Min_cycle;Max_cycle;Signal;HPM_P1;HPM_P2
2023/06/11 00:01:29;;;;;;;;;;;;;;;25.77;46.05;100897.13;4172580;28;19953;-62
2023/06/11 00:03:33;;;;;;;;;;;;;;;25.77;46.35;100896.25;4115582;28;19926;-62
2023/06/11 00:05:35;;;;;;;;;;;;;;;25.73;46.08;100887.63;4152585;28;19928;-62
2023/06/11 00:07:41;;;;;;;;;;;;;;;25.72;46.12;100890.47;4136632;28;19926;-61
2023/06/11 00:09:43;;;;;;;;;;;;;;;25.71;46.53;100888.78;4114048;28;19926;-61
2023/06/11 00:11:44;;;;;;;;;;;;;;;25.69;46.29;100886.25;4172395;28;19938;-62
2023/06/11 00:13:46;;;;;;;;;;;;;;;25.69;45.85;100888.94;4114996;28;19933;-62
2023/06/11 00:15:47;;;;;;;;;;;;;;;25.68;46.16;100888.06;4147273;28;19990;-62
2023/06/11 00:17:49;;;;;;;;;;;;;;;25.67;46.16;100878.28;4145871;28;19930;-62
2023/06/11 00:19:52;;;;;;;;;;;;;;;25.66;46.20;100886.53;4119675;28;19933;-61
2023/06/11 00:21:58;;;;;;;;;;;;;;;25.64;46.16;100885.84;4172831;28;20012;-62
2023/06/11 00:24:00;;;;;;;;;;;;;;;25.63;45.81;100879.59;4114534;28;19926;-62
2023/06/11 00:26:06;;;;;;;;;;;;;;;25.62;45.71;100885.16;4113437;28;19926;-62
2023/06/11 00:28:08;;;;;;;;;;;;;;;25.61;45.83;100886.13;4161471;28;19971;-62
2023/06/11 00:30:09;;;;;;;;;;;;;;;25.60;45.97;100888.00;4196414;28;19924;-62
2023/06/11 00:32:11;;;;;;;;;;;;;;;25.61;46.06;100886.97;4139121;28;19961;-62
2023/06/11 00:34:12;;;;;;;;;;;;;;;25.60;45.73;100893.38;4198793;28;19928;-62
2023/06/11 00:36:14;;;;;;;;;;;;;;;25.59;46.00;100888.97;4176832;28;19972;-61
2023/06/11 00:38:15;;;;;;;;;;;;;;;25.59;45.67;100891.69;4158251;28;19924;-62
2023/06/11 00:40:21;;;;;;;;;;;;;;;25.56;45.72;100889.28;4199817;28;19931;-61
2023/06/11 00:42:22;;;;;;;;;;;;;;;25.55;45.99;100895.66;4136241;28;19964;-61
2023/06/11 00:44:24;;;;;;;;;;;;;;;25.57;45.93;100907.13;4198289;28;19924;-61
2023/06/11 00:46:26;;;;;;;;;;;;;;;25.55;45.79;100900.19;4182954;28;19924;-61
2023/06/11 00:48:28;;;;;;;;;;;;;;;25.54;45.52;100901.19;4152833;28;19931;-61
2023/06/11 00:50:30;;;;;;;;;;;;;;;25.53;45.99;100900.34;4199283;28;19928;-61
2023/06/11 00:52:31;;;;;;;;;;;;;;;25.52;45.93;100907.56;4143887;28;19984;-62
2023/06/11 00:54:33;;;;;;;;;;;;;;;25.51;45.43;100902.34;4189529;28;19967;-62
2023/06/11 00:56:39;;;;;;;;;;;;;;;25.50;45.63;100906.84;4191543;28;19935;-61
2023/06/11 00:58:44;;;;;;;;;;;;;;;25.39;45.76;100884.69;4146799;28;19924;-61
2023/06/11 01:00:49;;;;;;;;;;;;;;;25.49;45.66;100904.31;4199228;28;19931;-61
2023/06/11 01:02:57;;;;;;;;;;;;;;;25.49;45.72;100907.00;4145172;28;19926;-62
2023/06/11 01:05:00;;;;;;;;;;;;;;;25.48;45.34;100906.19;4193094;28;19924;-63
2023/06/11 01:07:07;;;;;;;;;;;;;;;25.47;45.59;100912.56;4182479;28;19967;-61
2023/06/11 01:09:13;;;;;;;;;;;;;;;25.47;45.55;100914.38;4155306;28;19931;-61
2023/06/11 01:11:21;;;;;;;;;;;;;;;25.45;45.42;100914.53;4199009;28;19936;-62
2023/06/11 01:13:23;;;;;;;;;;;;;;;25.44;45.19;100915.53;4137314;28;19926;-62
2023/06/11 01:15:24;;;;;;;;;;;;;;;25.44;45.10;100909.31;4196498;28;19972;-61
2023/06/11 01:17:40;;;;;;;;;;;;;;;25.44;45.43;100914.69;4183899;28;19924;-61
2023/06/11 01:20:03;;;;;;;;;;;;;;;25.42;45.21;100914.84;4144324;28;19930;-61
2023/06/11 01:22:09;;;;;;;;;;;;;;;25.40;45.44;100919.53;4145199;28;19926;-61
2023/06/11 01:24:11;;;;;;;;;;;;;;;25.40;45.43;100911.44;4170590;28;19927;-61
2023/06/11 01:26:29;;;;;;;;;;;;;;;25.39;45.47;100909.75;4114231;28;20345;-62
2023/06/11 01:28:33;;;;;;;;;;;;;;;25.38;45.44;100905.34;4159907;28;19970;-62
2023/06/11 01:30:41;;;;;;;;;;;;;;;25.37;45.16;100911.69;4130227;28;19930;-63
2023/06/11 01:32:48;;;;;;;;;;;;;;;25.36;45.28;100905.47;4121395;28;19933;-62
2023/06/11 01:34:50;;;;;;;;;;;;;;;25.37;45.33;100906.31;4142725;28;20310;-62
2023/06/11 01:36:51;;;;;;;;;;;;;;;25.35;45.14;100909.16;4198545;28;19926;-62
2023/06/11 01:38:54;;;;;;;;;;;;;;;25.35;45.15;100898.38;4151832;28;19930;-62
2023/06/11 01:40:58;;;;;;;;;;;;;;;25.35;44.94;100893.00;4182918;28;19925;-62
2023/06/11 01:43:00;;;;;;;;;;;;;;;25.34;45.33;100890.47;4191492;28;19968;-61
2023/06/11 01:45:02;;;;;;;;;;;;;;;25.33;45.24;100892.28;4140403;28;20256;-62
2023/06/11 01:47:03;;;;;;;;;;;;;;;25.32;44.83;100890.63;4197384;28;19991;-61
2023/06/11 01:49:05;;;;;;;;;;;;;;;25.32;45.01;100890.63;4157332;28;20243;-62
2023/06/11 01:51:06;;;;;;;;;;;;;;;25.32;45.14;100887.06;4175949;28;19930;-61
2023/06/11 01:53:09;;;;;;;;;;;;;;;25.31;45.07;100882.66;4190967;28;19970;-62
2023/06/11 01:55:11;;;;;;;;;;;;;;;25.30;44.90;100887.22;4140161;28;19960;-62
2023/06/11 01:57:14;;;;;;;;;;;;;;;25.30;44.99;100889.03;4196980;28;19925;-63
2023/06/11 01:59:17;;;;;;;;;;;;;;;25.30;44.81;100886.34;4164737;28;20387;-62
2023/06/11 02:01:20;;;;;;;;;;;;;;;25.28;44.84;100881.13;4170032;28;19932;-62
2023/06/11 02:03:22;;;;;;;;;;;;;;;25.29;45.30;100890.06;4190759;28;19931;-62
2023/06/11 02:05:23;;;;;;;;;;;;;;;25.28;44.84;100889.19;4140235;28;20446;-62
2023/06/11 02:07:27;;;;;;;;;;;;;;;25.27;44.84;100892.88;4198365;28;19924;-61
2023/06/11 02:09:28;;;;;;;;;;;;;;;25.27;45.03;100892.03;4170030;28;19930;-61
2023/06/11 02:11:30;;;;;;;;;;;;;;;25.26;44.90;100893.88;4162934;28;19925;-62
2023/06/11 02:13:31;;;;;;;;;;;;;;;25.28;44.84;100901.81;4197285;28;20405;-62
2023/06/11 02:15:33;;;;;;;;;;;;;;;25.27;44.97;100890.19;4133732;28;20384;-62
2023/06/11 02:17:34;;;;;;;;;;;;;;;25.26;44.88;100893.03;4197908;28;20367;-62
2023/06/11 02:19:36;;;;;;;;;;;;;;;25.25;45.12;100899.41;4178171;28;19935;-62
2023/06/11 02:21:37;;;;;;;;;;;;;;;25.24;44.74;100890.50;4153844;28;20390;-62
2023/06/11 02:23:39;;;;;;;;;;;;;;;25.23;44.80;100894.19;4197953;28;19931;-62
2023/06/11 02:25:41;;;;;;;;;;;;;;;25.23;45.17;100883.41;4139510;28;20063;-62
2023/06/11 02:27:42;;;;;;;;;;;;;;;25.23;45.16;100885.28;4119733;28;19933;-62
2023/06/11 02:29:44;;;;;;;;;;;;;;;25.22;45.06;100883.56;4123410;28;19964;-62
2023/06/11 02:31:45;;;;;;;;;;;;;;;25.22;44.82;100881.72;4166426;28;20311;-62
2023/06/11 02:33:47;;;;;;;;;;;;;;;25.22;44.86;100876.34;4113400;28;19999;-61
2023/06/11 02:35:49;;;;;;;;;;;;;;;25.20;44.77;100876.50;4160445;28;19929;-61
2023/06/11 02:37:50;;;;;;;;;;;;;;;25.22;44.75;100875.50;4128282;28;20326;-61
2023/06/11 02:39:52;;;;;;;;;;;;;;;25.20;45.12;100878.31;4120253;28;19985;-60
2023/06/11 02:41:54;;;;;;;;;;;;;;;25.20;44.95;100873.78;4170171;28;20136;-62
2023/06/11 02:43:55;;;;;;;;;;;;;;;25.20;45.02;100873.78;4113580;28;20307;-62
2023/06/11 02:45:57;;;;;;;;;;;;;;;25.19;44.99;100876.63;4151604;28;19924;-62
2023/06/11 02:47:58;;;;;;;;;;;;;;;25.18;44.96;100875.78;4136675;28;20016;-62
2023/06/11 02:50:00;;;;;;;;;;;;;;;25.18;44.67;100874.94;4120526;28;20009;-62
2023/06/11 02:52:01;;;;;;;;;;;;;;;25.18;45.09;100872.25;4169973;28;19924;-62
2023/06/11 02:54:03;;;;;;;;;;;;;;;25.16;45.18;100869.69;4113472;28;19961;-62
2023/06/11 02:56:05;;;;;;;;;;;;;;;25.16;45.08;100869.69;4142759;28;20019;-62
2023/06/11 02:58:07;;;;;;;;;;;;;;;25.16;45.00;100874.22;4145714;28;20036;-62
2023/06/11 03:00:10;;;;;;;;;;;;;;;25.16;45.17;100871.53;4115400;28;19962;-62
2023/06/11 03:02:12;;;;;;;;;;;;;;;25.15;45.13;100869.84;4171648;28;20405;-62
2023/06/11 03:04:13;;;;;;;;;;;;;;;25.14;45.14;100863.63;4113183;28;19926;-62
2023/06/11 03:06:15;;;;;;;;;;;;;;;25.14;44.87;100862.75;4135071;28;20478;-62
2023/06/11 03:08:17;;;;;;;;;;;;;;;25.14;44.91;100862.75;4152774;28;19957;-62
2023/06/11 03:10:18;;;;;;;;;;;;;;;25.13;45.00;100863.75;4113182;28;19933;-61
2023/06/11 03:12:20;;;;;;;;;;;;;;;25.13;44.85;100856.53;4174054;28;20008;-62
2023/06/11 03:14:24;;;;;;;;;;;;;;;25.13;45.00;100863.75;4114410;28;19927;-62
2023/06/11 03:16:26;;;;;;;;;;;;;;;25.12;44.86;100857.53;4128212;28;19926;-62
2023/06/11 03:18:28;;;;;;;;;;;;;;;25.12;44.82;100862.06;4159586;28;19949;-62
2023/06/11 03:20:29;;;;;;;;;;;;;;;25.10;44.95;100867.56;4111948;28;20345;-62
2023/06/11 03:22:31;;;;;;;;;;;;;;;25.10;44.87;100862.19;4167089;28;19925;-62
2023/06/11 03:24:32;;;;;;;;;;;;;;;25.10;44.95;100872.97;4120618;28;20299;-61
2023/06/11 03:26:34;;;;;;;;;;;;;;;25.10;45.10;100867.56;4133889;28;19970;-62
2023/06/11 03:28:35;;;;;;;;;;;;;;;25.09;44.94;100867.72;4141595;28;19950;-62
2023/06/11 03:30:37;;;;;;;;;;;;;;;25.08;45.14;100871.41;4195703;28;19929;-62
2023/06/11 03:32:39;;;;;;;;;;;;;;;25.10;44.91;100874.81;4151374;28;20123;-62
2023/06/11 03:34:42;;;;;;;;;;;;;;;24.97;44.92;100854.47;4179132;28;19931;-62
2023/06/11 03:36:44;;;;;;;;;;;;;;;25.07;45.13;100875.97;4189405;28;19926;-62
2023/06/11 03:38:45;;;;;;;;;;;;;;;25.07;45.14;100877.78;4138767;28;20011;-61
2023/06/11 03:40:47;;;;;;;;;;;;;;;25.06;45.14;100871.56;4196670;28;19932;-61
2023/06/11 03:42:48;;;;;;;;;;;;;;;25.06;45.25;100879.63;4136596;28;19933;-62
2023/06/11 03:44:50;;;;;;;;;;;;;;;25.07;45.24;100880.47;4170861;28;20397;-62
2023/06/11 03:46:52;;;;;;;;;;;;;;;25.07;45.05;100872.41;4189035;28;20350;-62
2023/06/11 03:48:53;;;;;;;;;;;;;;;25.06;45.21;100873.44;4126682;28;19926;-62
2023/06/11 03:50:55;;;;;;;;;;;;;;;25.03;45.16;100880.78;4112940;28;19927;-61
2023/06/11 03:52:57;;;;;;;;;;;;;;;25.03;45.16;100877.22;4141238;28;20382;-62
2023/06/11 03:54:58;;;;;;;;;;;;;;;25.04;45.14;100881.63;4145578;28;20004;-62
2023/06/11 03:57:00;;;;;;;;;;;;;;;25.03;44.95;100882.59;4113584;28;19930;-62
2023/06/11 03:59:01;;;;;;;;;;;;;;;25.02;45.11;100876.38;4174259;28;20356;-62
2023/06/11 04:01:03;;;;;;;;;;;;;;;25.02;45.13;100875.56;4112460;28;19926;-62
2023/06/11 04:03:05;;;;;;;;;;;;;;;25.01;45.15;100872.00;4132509;28;19926;-62
2023/06/11 04:05:09;;;;;;;;;;;;;;;25.01;44.87;100877.38;4154227;28;19984;-61
2023/06/11 04:07:11;;;;;;;;;;;;;;;25.01;44.99;100874.69;4112490;28;19930;-62
2023/06/11 04:09:13;;;;;;;;;;;;;;;25.00;44.94;100875.69;4173202;28;19924;-62
2023/06/11 04:11:15;;;;;;;;;;;;;;;25.01;45.16;100873.84;4114142;28;19933;-61
2023/06/11 04:13:16;;;;;;;;;;;;;;;25.00;45.18;100880.22;4126164;28;20399;-62
2023/06/11 04:15:18;;;;;;;;;;;;;;;25.00;44.87;100877.53;4160410;28;19997;-62
2023/06/11 04:17:19;;;;;;;;;;;;;;;25.00;45.26;100878.38;4112619;28;19926;-62
2023/06/11 04:19:21;;;;;;;;;;;;;;;24.99;44.97;100878.53;4164377;28;19931;-62
2023/06/11 04:21:23;;;;;;;;;;;;;;;24.99;45.39;100878.53;4122807;28;20384;-62
2023/06/11 04:23:25;;;;;;;;;;;;;;;24.98;45.01;100875.00;4119121;28;19927;-62
2023/06/11 04:25:26;;;;;;;;;;;;;;;24.98;45.05;100877.69;4168096;28;20410;-63
2023/06/11 04:27:33;;;;;;;;;;;;;;;24.96;45.06;100874.28;4110923;28;19930;-62
2023/06/11 04:29:36;;;;;;;;;;;;;;;24.97;45.04;100876.00;4155992;28;19990;-62
2023/06/11 04:31:41;;;;;;;;;;;;;;;24.97;45.00;100881.38;4126553;28;19936;-62
2023/06/11 04:33:45;;;;;;;;;;;;;;;24.97;44.89;100877.81;4119327;28;19931;-62
2023/06/11 04:35:48;;;;;;;;;;;;;;;24.96;44.96;100882.34;4168178;28;20304;-62
2023/06/11 04:37:49;;;;;;;;;;;;;;;24.97;44.94;100885.88;4112554;28;20294;-62
2023/06/11 04:39:51;;;;;;;;;;;;;;;24.96;45.01;100893.13;4155861;28;20065;-62
2023/06/11 04:41:53;;;;;;;;;;;;;;;24.96;44.90;100892.25;4131310;28;20320;-61
2023/06/11 04:43:55;;;;;;;;;;;;;;;24.96;45.30;100893.13;4121099;28;20364;-62
2023/06/11 04:45:57;;;;;;;;;;;;;;;24.95;45.19;100894.09;4170808;28;19926;-61
2023/06/11 04:48:04;;;;;;;;;;;;;;;24.95;45.01;100887.88;4114817;28;20434;-62
2023/06/11 04:50:10;;;;;;;;;;;;;;;24.95;44.95;100899.50;4157829;28;19925;-62
2023/06/11 04:52:12;;;;;;;;;;;;;;;24.95;45.07;100887.88;4134912;28;19932;-62
2023/06/11 04:54:17;;;;;;;;;;;;;;;24.95;45.30;100887.88;4121975;28;19978;-62
2023/06/11 04:56:18;;;;;;;;;;;;;;;24.94;45.23;100878.94;4170761;28;19985;-62
2023/06/11 04:58:25;;;;;;;;;;;;;;;24.93;45.09;100885.31;4114680;28;19966;-62
2023/06/11 05:00:32;;;;;;;;;;;;;;;24.94;45.01;100886.19;4158194;28;19931;-62
2023/06/11 05:02:44;;;;;;;;;;;;;;;24.92;45.20;100891.69;4130439;28;20084;-62
2023/06/11 05:04:49;;;;;;;;;;;;;;;24.92;45.18;100894.38;4121187;28;20016;-62
2023/06/11 05:06:52;;;;;;;;;;;;;;;24.93;45.24;100892.56;4134291;28;19929;-62
2023/06/11 05:08:54;;;;;;;;;;;;;;;24.92;45.13;100891.69;4114603;28;19926;-62
2023/06/11 05:10:59;;;;;;;;;;;;;;;24.91;44.92;100892.72;4159888;28;20048;-62
2023/06/11 05:13:00;;;;;;;;;;;;;;;24.91;44.97;100895.41;4129457;28;20017;-62
2023/06/11 05:15:02;;;;;;;;;;;;;;;24.91;44.92;100898.09;4120935;28;20005;-62
2023/06/11 05:17:04;;;;;;;;;;;;;;;24.91;45.14;100892.72;4171298;28;20310;-62
2023/06/11 05:19:06;;;;;;;;;;;;;;;24.90;45.05;100892.84;4114711;28;19927;-62
2023/06/11 05:21:09;;;;;;;;;;;;;;;24.90;45.29;100896.38;4153672;28;19924;-61
2023/06/11 05:23:10;;;;;;;;;;;;;;;24.90;44.98;100896.38;4137172;28;20406;-62
2023/06/11 05:25:19;;;;;;;;;;;;;;;24.90;45.21;100895.53;4144724;28;19934;-62
2023/06/11 05:27:21;;;;;;;;;;;;;;;24.90;45.07;100898.22;4153719;28;20024;-62
2023/06/11 05:29:24;;;;;;;;;;;;;;;24.90;44.93;100896.38;4198698;28;19964;-62
2023/06/11 05:31:25;;;;;;;;;;;;;;;24.90;45.11;100895.53;4161010;28;19926;-62
2023/06/11 05:33:28;;;;;;;;;;;;;;;24.89;44.97;100894.69;4173477;28;19946;-62
2023/06/11 05:35:30;;;;;;;;;;;;;;;24.89;45.32;100897.38;4190464;28;19929;-62
2023/06/11 05:37:31;;;;;;;;;;;;;;;24.89;45.18;100894.69;4141529;28;19930;-62
2023/06/11 05:39:33;;;;;;;;;;;;;;;24.88;44.99;100896.50;4198679;28;19929;-62
2023/06/11 05:41:34;;;;;;;;;;;;;;;24.90;44.93;100901.78;4168864;28;20022;-62
2023/06/11 05:43:36;;;;;;;;;;;;;;;24.90;45.04;100898.22;4145174;28;19929;-62
2023/06/11 05:45:45;;;;;;;;;;;;;;;24.89;45.14;100900.06;4114398;28;19926;-62
2023/06/11 05:47:47;;;;;;;;;;;;;;;24.88;45.10;100899.19;4167643;28;20073;-62
2023/06/11 05:49:53;;;;;;;;;;;;;;;24.88;45.20;100907.28;4114123;28;20009;-61
2023/06/11 05:51:55;;;;;;;;;;;;;;;24.88;44.99;100901.88;4143130;28;19971;-62
2023/06/11 05:53:56;;;;;;;;;;;;;;;24.89;44.99;100908.13;4147320;28;19926;-61
2023/06/11 05:56:03;;;;;;;;;;;;;;;24.87;45.43;100904.72;4113543;28;19936;-62
2023/06/11 05:58:05;;;;;;;;;;;;;;;24.89;45.40;100910.81;4172310;28;19925;-62
2023/06/11 06:00:09;;;;;;;;;;;;;;;24.88;45.31;100901.06;4114043;28;19952;-62
2023/06/11 06:02:11;;;;;;;;;;;;;;;24.88;44.98;100901.88;4139430;28;19928;-62
2023/06/11 06:04:13;;;;;;;;;;;;;;;24.89;45.20;100900.06;4151271;28;20024;-62
2023/06/11 06:06:15;;;;;;;;;;;;;;;24.89;44.95;100902.75;4113764;28;19930;-62
2023/06/11 06:08:17;;;;;;;;;;;;;;;24.88;45.33;100901.06;4176759;28;19925;-62
2023/06/11 06:10:18;;;;;;;;;;;;;;;24.88;45.22;100909.97;4113675;28;19930;-62
2023/06/11 06:12:20;;;;;;;;;;;;;;;24.88;45.04;100909.13;4131255;28;19926;-62
2023/06/11 06:14:21;;;;;;;;;;;;;;;24.88;45.10;100911.81;4159185;28;19984;-61
2023/06/11 06:16:23;;;;;;;;;;;;;;;24.89;44.86;100910.81;4112814;28;20047;-62
2023/06/11 06:18:29;;;;;;;;;;;;;;;24.88;45.21;100911.81;4172283;28;20038;-62
2023/06/11 06:20:31;;;;;;;;;;;;;;;24.88;45.06;100912.66;4117452;28;20022;-62
2023/06/11 06:22:32;;;;;;;;;;;;;;;24.88;45.37;100914.50;4125600;28;19949;-62
2023/06/11 06:24:34;;;;;;;;;;;;;;;24.88;45.02;100917.19;4164303;28;20380;-61
2023/06/11 06:26:40;;;;;;;;;;;;;;;24.88;45.10;100914.50;4112616;28;20403;-61
2023/06/11 06:28:42;;;;;;;;;;;;;;;24.90;45.28;100922.44;4167140;28;19928;-62
2023/06/11 06:30:44;;;;;;;;;;;;;;;24.89;45.04;100918.91;4122624;28;19926;-62
2023/06/11 06:32:45;;;;;;;;;;;;;;;24.89;45.14;100921.59;4120408;28;20367;-62
2023/06/11 06:34:47;;;;;;;;;;;;;;;24.90;45.54;100925.13;4130808;28;19928;-62
2023/06/11 06:36:49;;;;;;;;;;;;;;;24.90;45.03;100922.44;4196557;28;19928;-62
2023/06/11 06:38:50;;;;;;;;;;;;;;;24.90;45.35;100922.44;4152667;28;20017;-62
2023/06/11 06:40:52;;;;;;;;;;;;;;;24.90;45.03;100919.72;4179076;28;20281;-62
2023/06/11 06:42:53;;;;;;;;;;;;;;;24.90;45.38;100923.28;4190436;28;19926;-62
2023/06/11 06:44:55;;;;;;;;;;;;;;;24.90;45.38;100922.44;4140673;28;19931;-62
2023/06/11 06:46:59;;;;;;;;;;;;;;;24.90;45.46;100915.22;4196287;28;19924;-62
2023/06/11 06:49:00;;;;;;;;;;;;;;;24.89;45.77;100926.97;4160362;28;19926;-62
2023/06/11 06:51:02;;;;;;;;;;;;;;;24.90;45.57;100925.97;4171776;28;19931;-61
2023/06/11 06:53:04;;;;;;;;;;;;;;;24.91;45.70;100926.81;4190181;28;19924;-62
2023/06/11 06:55:05;;;;;;;;;;;;;;;24.91;45.85;100921.44;4139811;28;19965;-62
2023/06/11 06:57:07;;;;;;;;;;;;;;;24.92;45.69;100923.97;4196834;28;20291;-62
2023/06/11 06:59:09;;;;;;;;;;;;;;;24.92;45.75;100921.28;4168586;28;20017;-62
2023/06/11 07:01:10;;;;;;;;;;;;;;;24.93;45.57;100916.78;4163423;28;19948;-61
2023/06/11 07:03:14;;;;;;;;;;;;;;;24.94;45.64;100921.16;4196240;28;20440;-62
2023/06/11 07:05:15;;;;;;;;;;;;;;;24.96;46.06;100924.53;4134273;28;20025;-62
2023/06/11 07:07:17;;;;;;;;;;;;;;;24.97;46.36;100924.41;4196811;28;19932;-62
2023/06/11 07:09:19;;;;;;;;;;;;;;;24.97;46.54;100932.50;4175683;28;19934;-62
2023/06/11 07:11:21;;;;;;;;;;;;;;;24.98;46.07;100934.19;4155527;28;19925;-61
2023/06/11 07:13:23;;;;;;;;;;;;;;;24.98;46.45;100934.19;4197263;28;20378;-61
2023/06/11 07:15:25;;;;;;;;;;;;;;;25.00;46.00;100934.03;4136099;28;19961;-61
2023/06/11 07:17:27;;;;;;;;;;;;;;;25.00;45.94;100940.25;4194157;28;19968;-61
2023/06/11 07:19:29;;;;;;;;;;;;;;;25.02;46.34;100950.91;4183483;28;20390;-61
2023/06/11 07:21:30;;;;;;;;;;;;;;;25.03;46.07;100948.06;4147652;28;19924;-61
2023/06/11 07:23:32;;;;;;;;;;;;;;;25.04;45.98;100954.28;4196932;28;20452;-62
2023/06/11 07:25:34;;;;;;;;;;;;;;;25.03;45.67;100948.06;4144080;28;20435;-62
2023/06/11 07:27:35;;;;;;;;;;;;;;;25.04;45.71;100956.97;4119389;28;20050;-62
2023/06/11 07:29:39;;;;;;;;;;;;;;;25.07;45.81;100958.53;4119747;28;19937;-62
2023/06/11 07:31:40;;;;;;;;;;;;;;;25.10;45.90;100955.56;4139997;28;19932;-62
2023/06/11 07:33:43;;;;;;;;;;;;;;;25.11;45.52;100958.09;4195980;28;19928;-62
2023/06/11 07:35:46;;;;;;;;;;;;;;;25.13;45.95;100953.41;4151182;28;19972;-61
2023/06/11 07:37:48;;;;;;;;;;;;;;;25.15;45.44;100955.97;4179958;28;19924;-62
2023/06/11 07:39:50;;;;;;;;;;;;;;;25.14;46.13;100957.81;4190037;28;19930;-62
2023/06/11 07:41:54;;;;;;;;;;;;;;;25.15;45.68;100958.66;4139976;28;19924;-62
2023/06/11 07:43:55;;;;;;;;;;;;;;;25.17;45.70;100962.06;4195500;28;19925;-63
2023/06/11 07:45:57;;;;;;;;;;;;;;;25.16;45.49;100955.81;4156681;28;19933;-63
2023/06/11 07:47:58;;;;;;;;;;;;;;;25.17;45.58;100959.38;4172604;28;19936;-63
2023/06/11 07:50:00;;;;;;;;;;;;;;;25.17;45.89;100960.19;4189419;28;20341;-63
2023/06/11 07:52:02;;;;;;;;;;;;;;;25.17;45.71;100960.19;4139356;28;19997;-63
2023/06/11 07:54:04;;;;;;;;;;;;;;;25.18;45.69;100950.31;4196861;28;20003;-63
2023/06/11 07:56:06;;;;;;;;;;;;;;;25.15;45.82;100956.81;4164742;28;19926;-63
2023/06/11 07:58:07;;;;;;;;;;;;;;;25.15;45.44;100954.13;4164655;28;19931;-63
2023/06/11 08:00:10;;;;;;;;;;;;;;;25.15;45.82;100956.81;4190309;28;20020;-64
2023/06/11 08:02:12;;;;;;;;;;;;;;;25.15;45.68;100955.97;4137469;28;19969;-63
2023/06/11 08:04:13;;;;;;;;;;;;;;;25.15;45.92;100945.19;4196835;28;19924;-62
2023/06/11 08:06:15;;;;;;;;;;;;;;;25.04;45.71;100939.00;4172547;28;19926;-64
2023/06/11 08:08:17;;;;;;;;;;;;;;;25.16;45.80;100955.81;4156970;28;20385;-63
2023/06/11 08:10:19;;;;;;;;;;;;;;;25.17;45.62;100953.97;4196408;28;19934;-62
2023/06/11 08:12:21;;;;;;;;;;;;;;;25.17;45.51;100949.44;4134875;28;19969;-63
2023/06/11 08:14:22;;;;;;;;;;;;;;;25.17;45.99;100957.50;4195108;28;19924;-62
2023/06/11 08:16:24;;;;;;;;;;;;;;;25.17;46.13;100948.59;4181405;28;20256;-63
2023/06/11 08:18:25;;;;;;;;;;;;;;;25.17;46.03;100949.44;4146565;28;19926;-62
2023/06/11 08:20:27;;;;;;;;;;;;;;;25.17;45.57;100946.75;4115107;28;19933;-62
2023/06/11 08:22:29;;;;;;;;;;;;;;;25.18;46.34;100945.75;4168192;28;20023;-63
2023/06/11 08:24:30;;;;;;;;;;;;;;;25.18;45.94;100944.91;4125297;28;19940;-63
2023/06/11 08:26:33;;;;;;;;;;;;;;;25.18;46.24;100943.06;4145005;28;20391;-63
2023/06/11 08:28:35;;;;;;;;;;;;;;;25.18;45.83;100943.06;4131915;28;20349;-63
2023/06/11 08:30:36;;;;;;;;;;;;;;;25.19;46.16;100943.94;4199416;28;20030;-63
2023/06/11 08:32:38;;;;;;;;;;;;;;;25.19;46.06;100941.25;4154733;28;20333;-63
2023/06/11 08:34:40;;;;;;;;;;;;;;;25.19;46.27;100942.06;4181272;28;19929;-63
2023/06/11 08:36:41;;;;;;;;;;;;;;;25.21;45.98;100936.53;4190799;28;19969;-63
2023/06/11 08:38:43;;;;;;;;;;;;;;;25.20;46.38;100938.41;4142352;28;19931;-62
2023/06/11 08:40:45;;;;;;;;;;;;;;;25.22;46.34;100942.78;4199314;28;20373;-63
2023/06/11 08:42:47;;;;;;;;;;;;;;;25.21;45.95;100941.91;4163154;28;20375;-63
2023/06/11 08:44:48;;;;;;;;;;;;;;;25.22;46.10;100937.41;4172815;28;19949;-63
2023/06/11 08:46:51;;;;;;;;;;;;;;;25.22;46.63;100940.09;4191018;28;20020;-63
2023/06/11 08:49:04;;;;;;;;;;;;;;;25.22;46.79;100937.41;4142253;28;20025;-63
2023/06/11 08:51:08;;;;;;;;;;;;;;;25.20;46.45;100935.69;4199107;28;20687;-62
2023/06/11 08:53:12;;;;;;;;;;;;;;;25.22;46.99;100937.41;4161440;28;19976;-63
2023/06/11 08:55:14;;;;;;;;;;;;;;;25.20;46.55;100935.69;4175555;28;20394;-63
2023/06/11 08:57:16;;;;;;;;;;;;;;;25.20;47.22;100941.09;4190677;28;20011;-63
2023/06/11 08:59:18;;;;;;;;;;;;;;;25.22;47.25;100940.09;4142126;28;19926;-63
2023/06/11 09:01:21;;;;;;;;;;;;;;;25.24;46.59;100935.41;4197969;28;19928;-63
2023/06/11 09:03:23;;;;;;;;;;;;;;;25.24;46.47;100940.78;4166723;28;19980;-63
2023/06/11 09:05:24;;;;;;;;;;;;;;;25.26;46.75;100936.94;4167780;28;19955;-63
2023/06/11 09:07:26;;;;;;;;;;;;;;;25.27;46.88;100933.25;4193431;28;19928;-63
2023/06/11 09:09:28;;;;;;;;;;;;;;;25.28;46.61;100929.56;4139703;28;20425;-62
2023/06/11 09:11:33;;;;;;;;;;;;;;;25.29;46.64;100935.84;4199010;28;19928;-63
2023/06/11 09:13:34;;;;;;;;;;;;;;;25.30;47.46;100937.50;4172967;28;19933;-63
2023/06/11 09:15:36;;;;;;;;;;;;;;;25.30;46.79;100935.69;4161202;28;19932;-63
2023/06/11 09:17:39;;;;;;;;;;;;;;;25.32;47.01;100933.69;4231060;28;20397;-63
2023/06/11 09:19:41;;;;;;;;;;;;;;;25.32;47.01;100933.69;4177234;28;19935;-62
2023/06/11 09:21:52;;;;;;;;;;;;;;;25.32;46.91;100941.78;4113289;28;19926;-63
2023/06/11 09:23:54;;;;;;;;;;;;;;;25.34;47.24;100945.16;4139360;28;20306;-63
2023/06/11 09:25:57;;;;;;;;;;;;;;;25.36;47.37;100953.09;4151007;28;20357;-63
2023/06/11 09:28:04;;;;;;;;;;;;;;;25.36;46.92;100945.84;4113896;28;20030;-63
2023/06/11 09:30:10;;;;;;;;;;;;;;;25.36;47.00;100945.03;4136275;28;19925;-63
2023/06/11 09:32:12;;;;;;;;;;;;;;;25.37;47.03;100944.00;4198895;28;20297;-63
2023/06/11 09:34:34;;;;;;;;;;;;;;;25.36;47.48;100945.84;4159611;28;19957;-63
2023/06/11 09:36:36;;;;;;;;;;;;;;;25.36;47.43;100943.16;4173095;28;20374;-63
2023/06/11 09:38:38;;;;;;;;;;;;;;;25.35;47.78;100952.22;4191334;28;19925;-63
2023/06/11 09:40:39;;;;;;;;;;;;;;;25.34;47.73;100958.59;4141505;28;19991;-63
2023/06/11 09:42:45;;;;;;;;;;;;;;;25.34;47.33;100957.78;4198417;28;20015;-62
2023/06/11 09:44:47;;;;;;;;;;;;;;;25.33;47.64;100961.44;4165517;28;19926;-62
2023/06/11 09:46:49;;;;;;;;;;;;;;;25.31;47.69;100958.06;4167601;28;20439;-62
2023/06/11 09:48:51;;;;;;;;;;;;;;;25.30;48.13;100959.03;4192688;28;19975;-63
2023/06/11 09:50:53;;;;;;;;;;;;;;;25.29;48.52;100960.91;4140668;28;19926;-63
2023/06/11 09:52:55;;;;;;;;;;;;;;;25.28;48.95;100971.81;4198370;28;20369;-63
2023/06/11 09:54:57;;;;;;;;;;;;;;;25.27;48.51;100967.41;4172871;28;19956;-63
2023/06/11 09:56:59;;;;;;;;;;;;;;;25.26;48.60;100979.19;4160472;28;19928;-62
2023/06/11 09:59:02;;;;;;;;;;;;;;;25.26;48.99;100974.63;4198113;28;19937;-62
2023/06/11 10:01:03;;;;;;;;;;;;;;;25.25;48.62;100978.34;4177260;28;19932;-63
2023/06/11 10:03:08;;;;;;;;;;;;;;;25.25;48.48;100977.47;4113682;28;19956;-62
2023/06/11 10:05:10;;;;;;;;;;;;;;;25.25;48.97;100977.47;4133640;28;19930;-62
2023/06/11 10:07:12;;;;;;;;;;;;;;;25.25;48.89;100985.56;4155579;28;19930;-62
2023/06/11 10:09:15;;;;;;;;;;;;;;;25.23;49.14;100983.00;4114039;28;19958;-61
2023/06/11 10:11:20;;;;;;;;;;;;;;;25.22;48.35;100978.63;4173430;28;19928;-62
2023/06/11 10:13:28;;;;;;;;;;;;;;;25.21;49.23;100982.28;4115075;28;19937;-62
2023/06/11 10:15:31;;;;;;;;;;;;;;;25.22;48.67;100992.06;4133197;28;19926;-62
2023/06/11 10:17:34;;;;;;;;;;;;;;;25.21;48.46;100987.69;4155151;28;19926;-61
2023/06/11 10:19:36;;;;;;;;;;;;;;;25.20;48.41;100991.34;4114072;28;19934;-61
2023/06/11 10:21:38;;;;;;;;;;;;;;;25.20;48.85;101000.31;4173786;28;19925;-61
2023/06/11 10:23:40;;;;;;;;;;;;;;;25.20;49.20;100996.75;4116114;28;19933;-64
2023/06/11 10:25:50;;;;;;;;;;;;;;;25.19;48.76;100995.06;4127304;28;19949;-63
2023/06/11 10:27:57;;;;;;;;;;;;;;;25.20;48.55;100996.75;4158634;28;19932;-64
2023/06/11 10:29:59;;;;;;;;;;;;;;;25.19;48.32;101003.97;4197533;28;19925;-63